Time;durP1;ratioP1;P1;durP2;ratioP2;P2;SDS_P1;SDS_P2;PMS_P1;PMS_P2;Temp;Humidity;BMP_temperature;BMP_pressure;BME280_temperature;BME280_humidity;BME280_pressure;Samples;Min_cycle;Max_cycle;Signal;HPM_P1;HPM_P2
2024/02/06 00:00:21;;;;;;;7.90;6.20;;;7.50;99.90;;;;;;4977061;28;20487;-66
2024/02/06 00:02:50;;;;;;;9.20;6.90;;;7.60;1.00;;;;;;4977140;28;20770;-66
2024/02/06 00:05:19;;;;;;;8.73;6.50;;;7.60;99.90;;;;;;4976754;28;20516;-66
2024/02/06 00:07:47;;;;;;;14.20;7.90;;;7.60;99.90;;;;;;4977052;28;20497;-66
2024/02/06 00:10:15;;;;;;;12.10;8.07;;;7.60;44.40;;;;;;4976544;28;20520;-65
2024/02/06 00:12:42;;;;;;;14.20;7.83;;;7.60;99.90;;;;;;4977002;28;20494;-66
2024/02/06 00:15:12;;;;;;;12.37;7.83;;;7.60;1.00;;;;;;4976941;28;20461;-66
2024/02/06 00:17:40;;;;;;;11.33;7.13;;;7.70;1.00;;;;;;4977161;28;20520;-66
2024/02/06 00:20:09;;;;;;;13.30;8.53;;;7.70;99.90;;;;;;4976803;28;20539;-66
2024/02/06 00:22:38;;;;;;;11.97;6.87;;;7.70;1.00;;;;;;4976605;28;20850;-67
2024/02/06 00:25:06;;;;;;;11.80;7.40;;;7.70;99.90;;;;;;4977200;28;20463;-66
2024/02/06 00:27:33;;;;;;;14.07;7.83;;;7.70;35.00;;;;;;4976369;28;20470;-66
2024/02/06 00:30:00;;;;;;;12.33;7.77;;;7.80;99.90;;;;;;4976266;28;20874;-67
2024/02/06 00:32:28;;;;;;;9.43;6.60;;;7.80;30.20;;;;;;4975969;28;20458;-67
2024/02/06 00:34:59;;;;;;;10.20;7.10;;;7.80;99.90;;;;;;4976198;28;20462;-66
2024/02/06 00:37:27;;;;;;;9.93;7.17;;;7.80;31.20;;;;;;4976920;28;20465;-66
2024/02/06 00:39:56;;;;;;;15.47;7.50;;;7.80;99.90;;;;;;4976570;28;20964;-66
2024/02/06 00:42:23;;;;;;;10.13;6.63;;;7.80;31.90;;;;;;4976516;28;20467;-70
2024/02/06 00:44:50;;;;;;;10.77;7.97;;;7.80;1.00;;;;;;4976438;28;20466;-66
2024/02/06 00:47:16;;;;;;;8.63;6.53;;;7.80;99.90;;;;;;4976311;28;20516;-65
2024/02/06 00:49:44;;;;;;;13.23;7.87;;;7.80;1.00;;;;;;4976570;28;20766;-66
2024/02/06 00:52:12;;;;;;;12.63;7.27;;;7.80;1.00;;;;;;4975850;28;20472;-65
2024/02/06 00:54:39;;;;;;;13.07;8.00;;;7.90;79.40;;;;;;4976384;28;20520;-65
2024/02/06 00:57:08;;;;;;;9.23;6.87;;;7.90;99.90;;;;;;4976740;28;20941;-66
2024/02/06 00:59:35;;;;;;;11.87;7.83;;;7.90;1.00;;;;;;4976973;28;20458;-66
2024/02/06 01:02:03;;;;;;;11.90;7.60;;;7.80;32.70;;;;;;4975805;28;20516;-66
2024/02/06 01:04:30;;;;;;;13.93;7.87;;;7.90;1.00;;;;;;4975743;28;20457;-66
2024/02/06 01:06:57;;;;;;;13.43;7.17;;;7.90;1.00;;;;;;4975611;28;20763;-65
2024/02/06 01:09:25;;;;;;;11.00;6.77;;;7.90;1.00;;;;;;4976155;28;20833;-67
2024/02/06 01:11:52;;;;;;;14.30;7.03;;;7.90;1.00;;;;;;4975785;28;21000;-67
2024/02/06 01:14:22;;;;;;;10.27;7.13;;;7.90;1.00;;;;;;4975870;28;20821;-66
2024/02/06 01:16:49;;;;;;;11.03;7.30;;;8.00;99.90;;;;;;4975684;28;20469;-66
2024/02/06 01:19:16;;;;;;;11.27;6.40;;;8.00;19.40;;;;;;4976020;28;20473;-69
2024/02/06 01:21:44;;;;;;;11.50;7.17;;;8.00;99.90;;;;;;4976051;28;20466;-66
2024/02/06 01:24:11;;;;;;;12.90;7.53;;;8.00;1.00;;;;;;4975426;28;20502;-66
2024/02/06 01:26:38;;;;;;;12.87;6.90;;;8.00;1.00;;;;;;4975356;28;20507;-66
2024/02/06 01:29:06;;;;;;;11.70;7.10;;;8.00;1.00;;;;;;4975725;28;20466;-67
2024/02/06 01:31:34;;;;;;;14.63;7.80;;;8.00;99.90;;;;;;4976000;28;20469;-65
2024/02/06 01:34:02;;;;;;;11.20;7.03;;;8.10;52.70;;;;;;4975444;28;20596;-66
2024/02/06 01:36:29;;;;;;;11.03;6.37;;;8.10;1.00;;;;;;4976285;28;20883;-68
2024/02/06 01:38:57;;;;;;;12.23;6.40;;;8.10;1.00;;;;;;4980685;28;20466;-70
2024/02/06 01:41:24;;;;;;;10.03;6.60;;;8.10;42.30;;;;;;4982274;28;20468;-66
2024/02/06 01:43:51;;;;;;;9.80;5.67;;;8.10;1.00;;;;;;4982351;28;20886;-67
2024/02/06 01:46:19;;;;;;;14.10;6.20;;;8.20;1.00;;;;;;4982039;28;21025;-67
2024/02/06 01:48:48;;;;;;;11.47;6.30;;;8.20;1.00;;;;;;4981928;28;20910;-66
2024/02/06 01:51:16;;;;;;;9.20;6.30;;;8.20;1.00;;;;;;4982212;28;20473;-67
2024/02/06 01:53:44;;;;;;;10.73;5.63;;;8.20;1.00;;;;;;4982514;28;20501;-68
2024/02/06 01:56:12;;;;;;;12.43;6.70;;;8.20;1.00;;;;;;4981937;28;20929;-66
2024/02/06 01:58:39;;;;;;;8.97;5.30;;;8.20;1.00;;;;;;4981786;28;20457;-67
2024/02/06 02:01:07;;;;;;;9.50;5.50;;;8.20;1.00;;;;;;4982032;28;20518;-67
2024/02/06 02:03:36;;;;;;;7.20;5.20;;;8.30;99.90;;;;;;4982313;28;20492;-67
2024/02/06 02:06:05;;;;;;;9.27;5.50;;;8.30;99.90;;;;;;4982279;28;20953;-68
2024/02/06 02:08:33;;;;;;;10.00;6.00;;;8.30;99.90;;;;;;4981957;28;20492;-67
2024/02/06 02:11:03;;;;;;;14.57;5.73;;;8.30;99.90;;;;;;4982609;28;20564;-67
2024/02/06 02:13:30;;;;;;;7.70;5.77;;;8.30;99.90;;;;;;4982338;28;20493;-67
2024/02/06 02:15:58;;;;;;;11.90;5.80;;;8.30;99.90;;;;;;4983015;28;20492;-67
2024/02/06 02:18:31;;;;;;;8.47;5.30;;;8.40;99.90;;;;;;4981415;28;20469;-67
2024/02/06 02:20:59;;;;;;;9.30;6.40;;;8.40;99.90;;;;;;4982102;28;20458;-68
2024/02/06 02:23:27;;;;;;;7.67;5.30;;;8.40;99.90;;;;;;4981981;28;20499;-67
2024/02/06 02:25:54;;;;;;;11.17;5.60;;;8.30;99.90;;;;;;4982084;28;20936;-67
2024/02/06 02:28:22;;;;;;;10.50;5.97;;;8.30;99.90;;;;;;4981890;28;20579;-66
2024/02/06 02:30:49;;;;;;;9.80;5.47;;;8.30;99.90;;;;;;4981588;28;20838;-67
2024/02/06 02:33:17;;;;;;;9.77;5.50;;;8.40;99.90;;;;;;4981867;28;20468;-67
2024/02/06 02:35:45;;;;;;;9.23;5.27;;;8.40;99.90;;;;;;4981960;28;20760;-67
2024/02/06 02:38:13;;;;;;;10.37;4.97;;;8.40;99.90;;;;;;4981111;28;20473;-66
2024/02/06 02:40:42;;;;;;;9.87;5.13;;;8.40;23.70;;;;;;4981525;28;20466;-66
2024/02/06 02:43:09;;;;;;;10.57;5.77;;;8.40;1.00;;;;;;4981571;28;20461;-66
2024/02/06 02:45:36;;;;;;;12.63;5.00;;;8.40;1.00;;;;;;4982193;28;20761;-66
2024/02/06 02:48:04;;;;;;;11.30;6.50;;;8.40;1.00;;;;;;4981784;28;20465;-66
2024/02/06 02:50:31;;;;;;;7.53;5.60;;;8.40;1.00;;;;;;4978869;28;20470;-66
2024/02/06 02:52:58;;;;;;;11.00;5.07;;;8.40;1.00;;;;;;4978724;28;20487;-65
2024/02/06 02:55:26;;;;;;;11.63;5.63;;;8.40;1.00;;;;;;4978497;28;20524;-65
2024/02/06 02:57:54;;;;;;;14.70;6.07;;;8.40;1.00;;;;;;4978458;28;20468;-65
2024/02/06 03:00:22;;;;;;;9.97;5.00;;;8.40;1.00;;;;;;4978547;28;20519;-64
2024/02/06 03:02:49;;;;;;;14.90;6.10;;;8.40;19.60;;;;;;4978457;28;20769;-64
2024/02/06 03:05:17;;;;;;;10.37;6.07;;;8.40;1.00;;;;;;4978391;28;20564;-65
2024/02/06 03:07:44;;;;;;;8.83;5.90;;;8.40;1.00;;;;;;4978563;28;20486;-65
2024/02/06 03:10:11;;;;;;;10.10;5.20;;;8.40;1.00;;;;;;4978312;28;20493;-65
2024/02/06 03:12:39;;;;;;;9.70;6.30;;;8.40;1.00;;;;;;4978232;28;20898;-63
2024/02/06 03:15:09;;;;;;;10.93;5.37;;;8.40;1.00;;;;;;4978254;28;20498;-63
2024/02/06 03:17:36;;;;;;;11.23;5.90;;;8.40;1.00;;;;;;4978654;28;20465;-64
2024/02/06 03:20:04;;;;;;;8.90;4.93;;;8.40;11.00;;;;;;4978193;28;20469;-63
2024/02/06 03:22:33;;;;;;;7.63;5.13;;;8.40;1.00;;;;;;4978002;28;20462;-63
2024/02/06 03:25:00;;;;;;;10.70;5.47;;;8.40;1.00;;;;;;4978119;28;20553;-64
2024/02/06 03:27:28;;;;;;;7.23;5.63;;;8.40;17.40;;;;;;4978779;28;20490;-64
2024/02/06 03:29:55;;;;;;;9.60;5.80;;;8.40;1.00;;;;;;4977963;28;20511;-63
2024/02/06 03:32:24;;;;;;;12.30;5.70;;;8.40;63.00;;;;;;4977374;28;20468;-62
2024/02/06 03:34:51;;;;;;;9.93;5.90;;;8.40;54.60;;;;;;4977966;28;20827;-63
2024/02/06 03:37:18;;;;;;;9.30;5.50;;;8.40;5.00;;;;;;4978321;28;20462;-64
2024/02/06 03:39:46;;;;;;;10.50;5.50;;;8.40;20.10;;;;;;4978025;28;20462;-63
2024/02/06 03:42:13;;;;;;;8.67;5.87;;;8.40;32.50;;;;;;4977924;28;20436;-63
2024/02/06 03:44:41;;;;;;;10.80;5.57;;;8.40;9.20;;;;;;4977514;28;20465;-63
2024/02/06 03:47:08;;;;;;;8.43;5.10;;;8.40;1.00;;;;;;4977958;28;20532;-63
2024/02/06 03:49:37;;;;;;;14.33;5.33;;;8.40;1.00;;;;;;4977735;28;20516;-62
2024/02/06 03:52:04;;;;;;;10.90;5.80;;;8.50;1.00;;;;;;4977494;28;20500;-62
2024/02/06 03:54:32;;;;;;;7.60;4.70;;;8.50;1.00;;;;;;4977351;28;20497;-62
2024/02/06 03:56:59;;;;;;;12.60;5.63;;;8.50;1.00;;;;;;4977849;28;20501;-62
2024/02/06 03:59:26;;;;;;;8.73;5.07;;;8.50;1.00;;;;;;4977835;28;20970;-63
2024/02/06 04:01:53;;;;;;;10.00;5.70;;;8.50;1.00;;;;;;4976993;28;20462;-62
2024/02/06 04:04:20;;;;;;;10.40;5.00;;;8.50;1.00;;;;;;4977569;28;20494;-62
2024/02/06 04:06:49;;;;;;;11.33;5.00;;;8.50;1.00;;;;;;4977691;28;20469;-62
2024/02/06 04:09:16;;;;;;;9.63;5.40;;;8.50;1.00;;;;;;4977454;28;20593;-62
2024/02/06 04:11:43;;;;;;;6.93;4.70;;;8.50;1.00;;;;;;4977336;28;20462;-61
2024/02/06 04:14:10;;;;;;;13.30;6.83;;;8.50;1.00;;;;;;4977595;28;20929;-62
2024/02/06 04:16:37;;;;;;;11.27;4.93;;;8.50;1.00;;;;;;4977157;28;20836;-63
2024/02/06 04:19:05;;;;;;;8.63;4.70;;;8.60;69.70;;;;;;4977155;28;20466;-62
2024/02/06 04:21:32;;;;;;;7.87;4.63;;;8.50;1.00;;;;;;4977906;28;20464;-63
2024/02/06 04:24:01;;;;;;;12.57;5.23;;;8.50;1.00;;;;;;4976973;28;20553;-61
2024/02/06 04:26:28;;;;;;;10.20;5.57;;;8.60;1.00;;;;;;4977386;28;20492;-61
2024/02/06 04:28:55;;;;;;;11.17;4.87;;;8.60;1.00;;;;;;4977354;28;20520;-61
2024/02/06 04:31:22;;;;;;;12.33;5.67;;;8.60;1.00;;;;;;4977125;28;20552;-61
2024/02/06 04:33:50;;;;;;;11.33;5.47;;;8.60;47.10;;;;;;4977121;28;20541;-61
2024/02/06 04:36:17;;;;;;;11.27;5.10;;;8.60;1.00;;;;;;4976761;28;20472;-60
2024/02/06 04:38:44;;;;;;;11.43;5.30;;;8.60;1.00;;;;;;4977212;28;20541;-61
2024/02/06 04:41:13;;;;;;;8.73;5.03;;;8.60;1.00;;;;;;4977069;28;20498;-62
2024/02/06 04:43:41;;;;;;;8.73;5.43;;;8.60;1.50;;;;;;4977182;28;20844;-60
2024/02/06 04:46:09;;;;;;;7.50;5.20;;;8.60;1.00;;;;;;4976948;28;20873;-62
2024/02/06 04:48:36;;;;;;;9.90;4.93;;;8.60;60.30;;;;;;4977522;28;20470;-66
2024/02/06 04:51:03;;;;;;;8.37;4.77;;;8.60;99.90;;;;;;4976893;28;20867;-61
2024/02/06 04:53:31;;;;;;;8.27;5.77;;;8.60;99.90;;;;;;4976489;28;20708;-60
2024/02/06 04:55:59;;;;;;;10.67;5.27;;;8.50;99.90;;;;;;4976408;28;20508;-61
2024/02/06 04:58:28;;;;;;;11.67;4.80;;;8.50;99.90;;;;;;4976591;28;20458;-61
2024/02/06 05:00:55;;;;;;;10.80;5.33;;;8.50;99.90;;;;;;4976980;28;20750;-61
2024/02/06 05:03:23;;;;;;;9.90;5.80;;;8.50;99.90;;;;;;4976387;28;20462;-61
2024/02/06 05:05:50;;;;;;;11.83;5.60;;;8.60;99.90;;;;;;4977179;28;20507;-61
2024/02/06 05:08:17;;;;;;;13.30;6.57;;;8.60;99.90;;;;;;4976760;28;20489;-62
2024/02/06 05:10:47;;;;;;;12.33;6.37;;;8.60;99.90;;;;;;4976875;28;20501;-60
2024/02/06 05:13:14;;;;;;;10.30;6.37;;;8.60;99.90;;;;;;4975680;28;20491;-63
2024/02/06 05:15:43;;;;;;;11.10;6.30;;;8.60;99.90;;;;;;4977087;28;20497;-60
2024/02/06 05:18:10;;;;;;;8.83;5.63;;;8.60;47.70;;;;;;4976725;28;20491;-60
2024/02/06 05:20:37;;;;;;;11.07;6.40;;;8.60;51.00;;;;;;4976505;28;20466;-61
2024/02/06 05:23:05;;;;;;;11.27;5.30;;;8.60;17.80;;;;;;4976301;28;20462;-61
2024/02/06 05:25:32;;;;;;;9.67;6.00;;;8.60;90.50;;;;;;4976413;28;20552;-61
2024/02/06 05:27:59;;;;;;;12.87;5.70;;;8.60;99.90;;;;;;4975840;28;20520;-61
2024/02/06 05:30:27;;;;;;;7.40;5.37;;;8.60;45.80;;;;;;4976246;28;20553;-60
2024/02/06 05:32:56;;;;;;;14.03;5.73;;;8.70;44.00;;;;;;4976288;28;20466;-62
2024/02/06 05:35:23;;;;;;;12.53;6.20;;;8.60;79.40;;;;;;4975864;28;20552;-61
2024/02/06 05:37:50;;;;;;;6.90;5.10;;;8.60;3.70;;;;;;4975595;28;20856;-61
2024/02/06 05:40:18;;;;;;;15.10;6.60;;;8.60;76.60;;;;;;4975639;28;20933;-67
2024/02/06 05:42:45;;;;;;;8.20;6.10;;;8.60;24.80;;;;;;4975332;28;20821;-61
2024/02/06 05:45:12;;;;;;;12.33;6.10;;;8.60;95.70;;;;;;4976007;28;20523;-61
2024/02/06 05:47:40;;;;;;;12.80;5.77;;;8.60;99.90;;;;;;4975666;28;20458;-61
2024/02/06 05:50:10;;;;;;;16.73;6.50;;;8.60;43.20;;;;;;4974903;28;20466;-61
2024/02/06 05:52:37;;;;;;;10.80;6.17;;;8.60;42.70;;;;;;4974810;28;20429;-60
2024/02/06 05:55:06;;;;;;;15.23;6.40;;;8.60;76.50;;;;;;4975095;28;20830;-61
2024/02/06 05:57:34;;;;;;;10.33;5.90;;;8.50;99.90;;;;;;4974716;28;20466;-61
2024/02/06 06:00:04;;;;;;;13.73;6.90;;;8.50;1.00;;;;;;4974579;28;20512;-62
2024/02/06 06:02:31;;;;;;;12.67;7.13;;;8.50;1.00;;;;;;4974694;28;20832;-63
2024/02/06 06:04:58;;;;;;;9.83;5.97;;;8.50;1.00;;;;;;4975278;28;20462;-62
2024/02/06 06:07:27;;;;;;;12.27;7.17;;;8.50;1.00;;;;;;4974773;28;20489;-61
2024/02/06 06:09:54;;;;;;;9.73;5.80;;;8.50;7.10;;;;;;4975038;28;20458;-64
2024/02/06 06:12:22;;;;;;;9.83;6.53;;;8.50;20.20;;;;;;4974490;28;20864;-62
2024/02/06 06:14:49;;;;;;;10.90;6.40;;;8.50;99.90;;;;;;4975095;28;20502;-62
2024/02/06 06:17:16;;;;;;;10.13;6.83;;;8.50;99.90;;;;;;4975717;28;20466;-61
2024/02/06 06:19:44;;;;;;;13.20;7.00;;;8.50;99.90;;;;;;4975453;28;20523;-62
2024/02/06 06:22:12;;;;;;;14.83;6.80;;;8.50;1.00;;;;;;4975664;28;20461;-62
2024/02/06 06:24:40;;;;;;;8.57;7.00;;;8.50;1.00;;;;;;4977217;28;20768;-62
2024/02/06 06:27:08;;;;;;;10.77;6.27;;;8.40;1.00;;;;;;4979156;28;20489;-62
2024/02/06 06:29:35;;;;;;;16.00;7.03;;;8.40;1.00;;;;;;4978382;28;20465;-63
2024/02/06 06:32:03;;;;;;;13.80;6.40;;;8.40;1.00;;;;;;4977198;28;20469;-62
2024/02/06 06:34:30;;;;;;;9.80;6.57;;;8.40;1.00;;;;;;4977285;28;20468;-65
2024/02/06 06:36:58;;;;;;;9.07;6.17;;;8.50;1.00;;;;;;4978077;28;20469;-62
2024/02/06 06:39:25;;;;;;;12.23;6.87;;;8.40;99.90;;;;;;4978442;28;20461;-62
2024/02/06 06:41:54;;;;;;;8.67;6.67;;;8.40;99.90;;;;;;4977871;28;20458;-63
2024/02/06 06:44:21;;;;;;;9.73;7.37;;;8.40;99.90;;;;;;4978189;28;20776;-62
2024/02/06 06:46:49;;;;;;;15.67;7.43;;;8.50;99.90;;;;;;4978599;28;20466;-62
2024/02/06 06:49:17;;;;;;;13.20;6.47;;;8.40;99.90;;;;;;4978168;28;20472;-62
2024/02/06 06:51:44;;;;;;;10.23;6.97;;;8.40;99.90;;;;;;4993493;28;20490;-65
2024/02/06 06:54:11;;;;;;;12.67;8.10;;;8.50;47.60;;;;;;5024292;28;20511;-61
2024/02/06 06:56:39;;;;;;;15.47;7.30;;;8.50;24.40;;;;;;4976036;28;21224;-63
2024/02/06 06:59:08;;;;;;;12.37;7.47;;;8.50;1.00;;;;;;4975789;28;20487;-64
2024/02/06 07:01:35;;;;;;;10.17;6.70;;;8.50;99.90;;;;;;4977397;28;20480;-63
2024/02/06 07:04:04;;;;;;;11.47;6.70;;;8.50;99.90;;;;;;4976614;28;20489;-63
2024/02/06 07:06:31;;;;;;;8.90;6.63;;;8.60;1.00;;;;;;4978241;28;20500;-61
2024/02/06 07:08:59;;;;;;;10.33;8.00;;;8.60;1.00;;;;;;4977637;28;20489;-63
2024/02/06 07:11:27;;;;;;;10.60;7.23;;;8.60;1.00;;;;;;4978286;28;20461;-63
2024/02/06 07:13:54;;;;;;;11.43;6.60;;;8.60;30.40;;;;;;4977199;28;20466;-63
2024/02/06 07:16:23;;;;;;;9.40;7.53;;;8.60;99.90;;;;;;4976463;28;20537;-62
2024/02/06 07:18:51;;;;;;;10.70;6.70;;;8.50;99.90;;;;;;4977061;28;20458;-63
2024/02/06 07:21:18;;;;;;;9.97;6.00;;;8.50;99.90;;;;;;4977750;28;20466;-64
2024/02/06 07:23:46;;;;;;;9.97;7.87;;;8.50;99.90;;;;;;4978130;28;20466;-63
2024/02/06 07:26:13;;;;;;;11.13;7.07;;;8.50;99.90;;;;;;4977385;28;20472;-63
2024/02/06 07:28:41;;;;;;;10.97;6.80;;;8.50;99.90;;;;;;4977854;28;20790;-62
2024/02/06 07:31:08;;;;;;;10.43;6.43;;;8.50;1.00;;;;;;4977882;28;20515;-63
2024/02/06 07:33:37;;;;;;;12.43;7.90;;;8.50;1.00;;;;;;4977960;28;20462;-62
2024/02/06 07:36:04;;;;;;;17.90;7.50;;;8.50;99.90;;;;;;4976165;28;20556;-63
2024/02/06 07:38:32;;;;;;;14.80;8.03;;;8.60;1.00;;;;;;4977080;28;20461;-64
2024/02/06 07:40:59;;;;;;;14.13;7.97;;;8.60;99.90;;;;;;4977708;28;20492;-65
2024/02/06 07:43:28;;;;;;;14.47;7.83;;;8.60;1.00;;;;;;4977298;28;20462;-64
2024/02/06 07:45:56;;;;;;;10.10;7.80;;;8.60;99.90;;;;;;4977600;28;20942;-63
2024/02/06 07:48:23;;;;;;;12.10;7.50;;;8.60;99.90;;;;;;4977234;28;20462;-65
2024/02/06 07:50:52;;;;;;;9.30;6.37;;;8.60;1.00;;;;;;4977054;28;20931;-67
2024/02/06 07:53:19;;;;;;;10.80;6.57;;;8.70;99.90;;;;;;4977669;28;20470;-67
2024/02/06 07:55:47;;;;;;;15.57;7.50;;;8.70;1.10;;;;;;4977270;28;20787;-69
2024/02/06 07:58:14;;;;;;;21.63;7.47;;;8.70;99.90;;;;;;4976325;28;20465;-66
2024/02/06 08:00:43;;;;;;;14.43;7.10;;;8.70;99.90;;;;;;4976765;28;20447;-66
2024/02/06 08:03:11;;;;;;;10.40;7.10;;;8.70;99.90;;;;;;4977547;28;20465;-67
2024/02/06 08:05:38;;;;;;;16.40;7.37;;;8.70;1.00;;;;;;4977553;28;20519;-69
2024/02/06 08:08:08;;;;;;;20.07;7.53;;;8.70;99.90;;;;;;4976918;28;20486;-66
2024/02/06 08:10:35;;;;;;;12.77;7.03;;;8.70;99.90;;;;;;4976600;28;20805;-68
2024/02/06 08:13:02;;;;;;;12.03;6.40;;;8.70;1.00;;;;;;4976193;28;20462;-68
2024/02/06 08:15:30;;;;;;;15.50;7.00;;;8.80;1.00;;;;;;4976205;28;20501;-70
2024/02/06 08:17:57;;;;;;;15.33;6.60;;;8.80;1.00;;;;;;4976548;28;20468;-66
2024/02/06 08:20:25;;;;;;;10.57;6.33;;;8.80;1.00;;;;;;4976793;28;20466;-66
2024/02/06 08:22:52;;;;;;;14.17;7.33;;;8.80;1.00;;;;;;4976622;28;20750;-66
2024/02/06 08:25:22;;;;;;;17.70;8.00;;;8.80;33.30;;;;;;4976647;28;20480;-66
2024/02/06 08:27:49;;;;;;;10.23;6.00;;;8.80;99.90;;;;;;4976201;28;20548;-66
2024/02/06 08:30:17;;;;;;;11.80;6.70;;;8.80;1.00;;;;;;4976067;28;20559;-67
2024/02/06 08:32:46;;;;;;;12.23;6.93;;;8.90;99.90;;;;;;4976659;28;20533;-67
2024/02/06 08:35:14;;;;;;;9.87;6.07;;;8.90;99.90;;;;;;4975851;28;20490;-67
2024/02/06 08:37:41;;;;;;;18.37;6.47;;;8.90;1.00;;;;;;4977132;28;20553;-65
2024/02/06 08:40:10;;;;;;;9.53;5.90;;;8.90;1.00;;;;;;4976727;28;20531;-66
2024/02/06 08:42:39;;;;;;;15.40;6.53;;;9.00;1.00;;;;;;4976645;28;20474;-66
2024/02/06 08:45:08;;;;;;;15.13;7.07;;;9.00;99.90;;;;;;4976530;28;20473;-67
2024/02/06 08:47:36;;;;;;;13.03;6.77;;;9.00;1.00;;;;;;4976306;28;20767;-68
2024/02/06 08:50:06;;;;;;;9.47;6.33;;;9.10;1.00;;;;;;4977037;28;20470;-69
2024/02/06 08:52:33;;;;;;;10.43;6.50;;;9.10;1.00;;;;;;4976688;28;20548;-65
2024/02/06 08:55:02;;;;;;;8.87;5.83;;;9.10;1.00;;;;;;4976266;28;20466;-66
2024/02/06 08:57:29;;;;;;;13.00;6.47;;;9.10;93.40;;;;;;4976097;28;20470;-67
2024/02/06 08:59:58;;;;;;;14.63;6.73;;;9.00;99.90;;;;;;4976639;28;20473;-68
2024/02/06 09:02:26;;;;;;;11.07;6.57;;;9.10;1.00;;;;;;4976109;28;20556;-66
2024/02/06 09:04:54;;;;;;;11.93;6.47;;;9.10;99.90;;;;;;4975733;28;20469;-69
2024/02/06 09:07:24;;;;;;;11.80;6.40;;;9.10;99.90;;;;;;4976091;28;20556;-66
2024/02/06 09:09:53;;;;;;;14.83;7.33;;;9.10;17.30;;;;;;4976787;28;20474;-68
2024/02/06 09:12:21;;;;;;;10.40;6.40;;;9.00;99.90;;;;;;4974807;28;20484;-65
2024/02/06 09:14:48;;;;;;;9.10;6.27;;;9.10;99.90;;;;;;4975146;28;20465;-65
2024/02/06 09:17:19;;;;;;;10.93;5.80;;;9.10;99.90;;;;;;4974643;28;20531;-66
2024/02/06 09:19:46;;;;;;;8.33;5.93;;;9.10;99.90;;;;;;4974714;28;20466;-66
2024/02/06 09:22:14;;;;;;;10.70;5.80;;;9.10;11.20;;;;;;4974713;28;20462;-71
2024/02/06 09:24:41;;;;;;;14.73;7.33;;;9.20;99.90;;;;;;4973748;28;20462;-67
2024/02/06 09:27:10;;;;;;;10.47;6.47;;;9.20;1.00;;;;;;4975224;28;20883;-66
2024/02/06 09:29:37;;;;;;;11.33;6.00;;;9.20;99.90;;;;;;4974837;28;20465;-66
2024/02/06 09:32:05;;;;;;;13.50;6.33;;;9.20;1.00;;;;;;4974624;28;20470;-68
2024/02/06 09:34:34;;;;;;;10.13;5.97;;;9.20;1.00;;;;;;4974723;28;20441;-69
2024/02/06 09:37:01;;;;;;;10.00;7.27;;;9.20;1.00;;;;;;4975059;28;20494;-70
2024/02/06 09:39:29;;;;;;;13.80;7.10;;;9.20;1.00;;;;;;4973956;28;20462;-74
2024/02/06 09:42:01;;;;;;;16.27;7.40;;;9.20;1.00;;;;;;4975047;28;20462;-66
2024/02/06 09:44:29;;;;;;;11.73;6.57;;;9.20;1.00;;;;;;4976107;28;20882;-66
2024/02/06 09:47:00;;;;;;;10.50;6.87;;;9.10;99.90;;;;;;4975434;28;20569;-67
2024/02/06 09:49:28;;;;;;;12.90;7.00;;;9.10;99.90;;;;;;4974364;28;20505;-66
2024/02/06 09:51:59;;;;;;;11.60;6.90;;;9.00;99.90;;;;;;4974123;28;20469;-68
2024/02/06 09:54:27;;;;;;;15.50;8.00;;;8.90;1.00;;;;;;4974665;28;20523;-71
2024/02/06 09:56:57;;;;;;;11.83;6.50;;;8.90;99.90;;;;;;4974853;28;20498;-66
2024/02/06 09:59:26;;;;;;;11.70;6.73;;;8.90;99.90;;;;;;4975962;28;20512;-69
2024/02/06 10:01:54;;;;;;;11.37;6.80;;;8.90;1.00;;;;;;4978414;28;20466;-70
2024/02/06 10:04:24;;;;;;;10.70;6.90;;;8.90;99.90;;;;;;4978350;28;20464;-67
2024/02/06 10:06:52;;;;;;;14.67;8.20;;;8.90;99.90;;;;;;4979012;28;20461;-67
2024/02/06 10:09:25;;;;;;;9.33;7.73;;;9.00;1.00;;;;;;4978818;28;20512;-67
2024/02/06 10:11:55;;;;;;;11.07;7.10;;;9.00;99.90;;;;;;4979329;28;20469;-66
2024/02/06 10:14:23;;;;;;;13.60;7.17;;;9.00;1.00;;;;;;4978416;28;20474;-70
2024/02/06 10:16:51;;;;;;;13.60;7.40;;;9.00;1.00;;;;;;4978586;28;20555;-73
2024/02/06 10:19:18;;;;;;;10.27;6.93;;;9.00;99.90;;;;;;4979090;28;20870;-72
2024/02/06 10:21:46;;;;;;;12.03;7.00;;;9.00;1.00;;;;;;4978663;28;20895;-68
2024/02/06 10:24:13;;;;;;;12.47;7.60;;;9.10;1.00;;;;;;4978194;28;20772;-67
2024/02/06 10:26:42;;;;;;;9.83;6.97;;;9.00;1.00;;;;;;4978586;28;20466;-67
2024/02/06 10:29:17;;;;;;;17.93;8.47;;;9.00;77.50;;;;;;4978177;28;20462;-66
2024/02/06 10:31:45;;;;;;;12.70;7.50;;;9.10;1.00;;;;;;4978463;28;20476;-66
2024/02/06 10:34:14;;;;;;;9.90;6.87;;;9.00;99.90;;;;;;4978055;28;20462;-67
2024/02/06 10:36:42;;;;;;;14.73;8.13;;;9.10;1.00;;;;;;4978330;28;20516;-68
2024/02/06 10:39:11;;;;;;;11.37;7.23;;;9.10;1.00;;;;;;4978428;28;20493;-66
2024/02/06 10:41:39;;;;;;;9.77;7.10;;;9.10;1.00;;;;;;4978087;28;20462;-68
2024/02/06 10:44:14;;;;;;;15.10;8.57;;;9.10;1.00;;;;;;4977538;28;20556;-72
2024/02/06 10:46:42;;;;;;;11.40;7.60;;;9.00;99.90;;;;;;4976530;28;20471;-71
2024/02/06 10:49:10;;;;;;;10.60;7.80;;;9.00;1.00;;;;;;4976620;28;20963;-72
2024/02/06 10:51:37;;;;;;;14.70;7.70;;;9.10;1.00;;;;;;4976782;28;20528;-67
2024/02/06 10:54:05;;;;;;;14.30;8.50;;;9.10;1.00;;;;;;4976055;28;20515;-67
2024/02/06 10:56:35;;;;;;;15.43;8.50;;;9.10;1.00;;;;;;4975583;28;20525;-65
2024/02/06 10:59:08;;;;;;;13.87;8.07;;;9.10;99.90;;;;;;4976225;28;20883;-66
2024/02/06 11:01:39;;;;;;;13.87;8.60;;;9.10;1.00;;;;;;4975656;28;20458;-71
2024/02/06 11:04:11;;;;;;;10.23;7.03;;;9.10;99.90;;;;;;4976361;28;20516;-66
2024/02/06 11:06:44;;;;;;;16.37;8.43;;;9.00;99.90;;;;;;4976997;28;20458;-67
2024/02/06 11:09:16;;;;;;;13.33;8.27;;;9.00;99.90;;;;;;4976471;28;20829;-71
2024/02/06 11:11:44;;;;;;;14.00;7.87;;;9.10;1.00;;;;;;4976085;28;20497;-67
2024/02/06 11:14:15;;;;;;;11.43;7.67;;;9.10;93.70;;;;;;4976846;28;20890;-67
2024/02/06 11:16:50;;;;;;;13.43;9.03;;;9.10;1.00;;;;;;4976815;28;20786;-70
2024/02/06 11:19:26;;;;;;;14.77;8.20;;;9.10;1.00;;;;;;4976836;28;20437;-70
2024/02/06 11:22:04;;;;;;;13.43;7.13;;;9.10;1.00;;;;;;4976246;28;20559;-67
2024/02/06 11:24:33;;;;;;;11.70;7.00;;;9.10;1.00;;;;;;4976012;28;20502;-67
2024/02/06 11:27:02;;;;;;;13.93;7.97;;;9.20;1.00;;;;;;4976937;28;20766;-66
2024/02/06 11:29:30;;;;;;;11.27;7.63;;;9.20;1.00;;;;;;4976223;28;20473;-67
2024/02/06 11:32:00;;;;;;;12.57;7.97;;;9.20;1.00;;;;;;4976506;28;20458;-66
2024/02/06 11:34:27;;;;;;;9.90;7.30;;;9.30;1.00;;;;;;4976453;28;20539;-67
2024/02/06 11:37:00;;;;;;;12.00;8.00;;;9.30;1.00;;;;;;4976646;28;20836;-67
2024/02/06 11:39:29;;;;;;;15.30;8.10;;;9.30;99.90;;;;;;4977088;28;20465;-67
2024/02/06 11:42:02;;;;;;;15.03;8.20;;;9.30;99.90;;;;;;4976041;28;20878;-67
2024/02/06 11:44:29;;;;;;;13.33;8.00;;;9.30;99.90;;;;;;4976521;28;20469;-72
2024/02/06 11:46:59;;;;;;;12.30;8.40;;;9.30;99.90;;;;;;4976240;28;20511;-68
2024/02/06 11:49:27;;;;;;;15.60;9.10;;;9.30;1.00;;;;;;4976358;28;20516;-66
2024/02/06 11:51:55;;;;;;;15.50;8.80;;;9.20;1.00;;;;;;4976374;28;20543;-67
2024/02/06 11:54:23;;;;;;;12.13;8.27;;;9.20;58.80;;;;;;4976446;28;20453;-69
2024/02/06 11:56:52;;;;;;;12.40;8.57;;;9.20;1.00;;;;;;4975559;28;20781;-65
2024/02/06 11:59:19;;;;;;;13.43;8.60;;;9.20;99.90;;;;;;4975803;28;20466;-74
2024/02/06 12:01:47;;;;;;;16.60;9.70;;;9.20;99.90;;;;;;4975830;28;20591;-66
2024/02/06 12:04:24;;;;;;;14.10;8.00;;;9.20;99.90;;;;;;4976104;28;20763;-66
2024/02/06 12:06:52;;;;;;;16.80;10.07;;;9.20;99.90;;;;;;4976292;28;20538;-65
2024/02/06 12:09:20;;;;;;;18.57;8.93;;;9.20;1.00;;;;;;4976245;28;20514;-69
2024/02/06 12:11:48;;;;;;;12.57;8.30;;;9.20;99.90;;;;;;4976497;28;20941;-66
2024/02/06 12:14:17;;;;;;;9.80;7.90;;;9.20;1.00;;;;;;4975781;28;20466;-68
2024/02/06 12:16:46;;;;;;;13.90;8.43;;;9.20;1.00;;;;;;4975972;28;20556;-65
2024/02/06 12:19:15;;;;;;;13.73;9.13;;;9.20;99.90;;;;;;4975879;28;20466;-66
2024/02/06 12:21:45;;;;;;;13.90;7.73;;;9.30;99.90;;;;;;4974982;28;20534;-67
2024/02/06 12:24:13;;;;;;;15.03;8.97;;;9.30;99.90;;;;;;4975700;28;20462;-66
2024/02/06 12:26:41;;;;;;;13.43;8.70;;;9.30;1.00;;;;;;4975822;28;20471;-64
2024/02/06 12:29:09;;;;;;;14.63;8.80;;;9.30;99.90;;;;;;4976101;28;20958;-68
2024/02/06 12:31:41;;;;;;;16.57;8.90;;;9.30;99.90;;;;;;4975414;28;20470;-65
2024/02/06 12:34:09;;;;;;;10.83;7.50;;;9.40;1.00;;;;;;4974906;28;20462;-66
2024/02/06 12:36:37;;;;;;;10.70;7.77;;;9.40;99.90;;;;;;4974900;28;20494;-69
2024/02/06 12:39:12;;;;;;;11.17;7.80;;;9.50;1.00;;;;;;4974765;28;20512;-64
2024/02/06 12:41:40;;;;;;;17.27;8.43;;;9.60;1.00;;;;;;4976846;28;20552;-64
2024/02/06 12:44:08;;;;;;;12.77;7.40;;;9.60;1.00;;;;;;4976376;28;20474;-64
2024/02/06 12:46:35;;;;;;;12.27;7.63;;;9.70;1.00;;;;;;4976504;28;20462;-67
2024/02/06 12:49:04;;;;;;;16.80;7.60;;;9.70;99.90;;;;;;4982149;28;20493;-66
2024/02/06 12:51:32;;;;;;;12.87;7.90;;;9.70;1.00;;;;;;4986027;28;20481;-68
2024/02/06 12:54:02;;;;;;;14.23;9.70;;;9.70;1.00;;;;;;4986010;28;20763;-66
2024/02/06 12:56:32;;;;;;;13.50;7.37;;;9.80;1.00;;;;;;4984011;28;20466;-66
2024/02/06 12:58:59;;;;;;;15.23;7.37;;;9.80;1.00;;;;;;4980142;28;20484;-66